createdAt,value
2018-03-24T04:20:01.339Z,0.1
2018-03-24T04:22:01.112Z,0.2
2018-03-24T04:23:01.058Z,0.3
2018-03-24T04:25:01.239Z,0.4
2018-03-24T04:26:01.092Z,0.5
2018-03-24T04:28:01.113Z,0.7
2018-03-24T04:29:01.095Z,0.8
2018-03-24T04:30:01.271Z,0.9
2018-03-24T04:31:01.110Z,1.1
2018-03-24T04:32:01.066Z,1.2
2018-03-24T04:33:01.124Z,1.4
2018-03-24T04:34:01.101Z,1.6
2018-03-24T04:35:01.241Z,1.8
2018-03-24T04:36:01.096Z,2.1
2018-03-24T04:37:01.121Z,2.3
2018-03-24T04:38:01.095Z,2.7
2018-03-24T04:39:01.064Z,3.0
2018-03-24T04:40:06.307Z,3.4
2018-03-24T04:41:01.100Z,3.9
2018-03-24T04:42:01.118Z,4.5
2018-03-24T04:43:01.097Z,5.1
2018-03-24T04:44:01.111Z,5.9
2018-03-24T04:45:01.278Z,6.9
2018-03-24T04:46:01.064Z,8.0
2018-03-24T04:47:01.098Z,9.4
2018-03-24T04:48:01.099Z,11.1
2018-03-24T04:49:01.063Z,12.9
2018-03-24T04:50:01.275Z,14.9
2018-03-24T04:51:01.070Z,17.3
2018-03-24T04:52:01.125Z,20.5
2018-03-24T04:53:01.101Z,24.2
2018-03-24T04:54:01.071Z,28.5
2018-03-24T04:55:01.242Z,33.9
2018-03-24T04:56:01.100Z,40.3
2018-03-24T04:57:01.128Z,47.9
2018-03-24T04:58:01.067Z,56.7
2018-03-24T04:59:01.150Z,66.4
2018-03-24T05:00:01.242Z,77.5
2018-03-24T05:01:01.103Z,91.1
2018-03-24T05:02:01.130Z,106.4
2018-03-24T05:03:01.100Z,122.6
2018-03-24T05:04:01.149Z,141.1
2018-03-24T05:05:01.368Z,162.3
2018-03-24T05:06:01.097Z,184.9
2018-03-24T05:07:01.136Z,208.9
2018-03-24T05:08:01.070Z,235.3
2018-03-24T05:09:01.104Z,264.4
2018-03-24T05:10:01.247Z,295.7
2018-03-24T05:11:01.099Z,328.5
2018-03-24T05:12:01.144Z,361.9
2018-03-24T05:13:01.099Z,397.6
2018-03-24T05:14:01.144Z,439.1
2018-03-24T05:15:01.253Z,483.5
2018-03-24T05:16:01.130Z,522.7
2018-03-24T05:17:01.082Z,560.1
2018-03-24T05:18:01.110Z,603.5
2018-03-24T05:19:01.155Z,648.9
2018-03-24T05:20:01.246Z,689.8
2018-03-24T05:21:01.134Z,729.8
2018-03-24T05:22:01.072Z,777.3
2018-03-24T05:24:01.058Z,833.0
2018-03-24T05:25:01.268Z,887.1
2018-03-24T05:26:01.056Z,945.0
2018-03-24T05:27:01.092Z,1013.1
2018-03-24T05:28:01.092Z,1098.0
2018-03-24T05:29:01.091Z,1175.9
2018-03-24T05:30:01.324Z,1245.9
2018-03-24T05:31:01.103Z,1322.5
2018-03-24T05:32:01.065Z,1415.3
2018-03-24T05:33:01.093Z,1506.5
2018-03-24T05:34:01.063Z,1590.9
2018-03-24T05:35:01.264Z,1686.1
2018-03-24T05:36:01.139Z,1815.7
2018-03-24T05:37:01.100Z,1953.5
2018-03-24T05:38:01.096Z,2097.8
2018-03-24T05:39:01.104Z,2263.2
2018-03-24T05:40:01.242Z,2451.7
2018-03-24T05:41:01.132Z,2670.9
2018-03-24T05:42:01.094Z,2896.8
2018-03-24T05:43:01.064Z,3114.0
2018-03-24T05:44:01.097Z,3393.1
2018-03-24T05:45:01.245Z,3693.5
2018-03-24T05:46:01.123Z,3978.9
2018-03-24T05:47:01.063Z,4227.8
2018-03-24T05:48:01.099Z,4477.4
2018-03-24T05:49:01.063Z,4723.1
2018-03-24T05:50:01.243Z,4964.1
2018-03-24T05:51:01.137Z,5166.5
2018-03-24T05:52:01.067Z,5377.8
2018-03-24T05:53:01.066Z,5587.0
2018-03-24T05:54:01.068Z,5772.9
2018-03-24T05:55:01.337Z,5937.1
2018-03-24T05:56:01.097Z,6067.7
2018-03-24T05:57:01.067Z,6200.9
2018-03-24T05:58:01.069Z,6350.3
2018-03-24T05:59:01.074Z,6477.8
2018-03-24T06:00:01.401Z,6617.4
2018-03-24T06:01:01.065Z,6788.5
2018-03-24T06:02:01.101Z,6994.6
2018-03-24T06:03:01.097Z,7239.5
2018-03-24T06:04:01.166Z,7511.5
2018-03-24T06:05:01.282Z,7775.3
2018-03-24T06:06:01.103Z,8020.7
2018-03-24T06:07:01.105Z,8235.3
2018-03-24T06:08:01.100Z,8459.0
2018-03-24T06:09:01.071Z,8732.1
2018-03-24T06:10:01.279Z,9048.1
2018-03-24T06:11:01.097Z,9392.0
2018-03-24T06:12:01.101Z,9769.5
2018-03-24T06:13:01.099Z,10152.8
2018-03-24T06:14:01.113Z,10539.6
2018-03-24T06:15:01.296Z,10902.8
2018-03-24T06:16:01.100Z,11264.9
2018-03-24T06:17:01.102Z,11679.8
2018-03-24T06:18:01.069Z,12086.5
2018-03-24T06:19:01.098Z,12489.5
2018-03-24T06:20:01.271Z,12924.7
2018-03-24T06:21:01.144Z,13430.9
2018-03-24T06:22:01.111Z,13975.2
2018-03-24T06:23:01.105Z,14529.4
2018-03-24T06:24:01.105Z,15053.9
2018-03-24T06:25:01.312Z,15527.1
2018-03-24T06:27:01.110Z,15969.6
2018-03-24T06:28:01.054Z,16344.4
2018-03-24T06:29:01.105Z,16630.5
2018-03-24T06:30:01.057Z,16799.1
2018-03-24T06:31:01.328Z,16940.7
2018-03-24T06:32:01.126Z,17038.2
2018-03-24T06:33:01.087Z,17073.1
2018-03-24T06:34:01.059Z,17132.0
2018-03-24T06:35:01.092Z,17208.9
2018-03-24T06:36:01.365Z,17361.9
2018-03-24T06:37:01.136Z,17621.0
2018-03-24T06:38:01.122Z,17937.4
2018-03-24T06:39:01.104Z,18172.0
2018-03-24T06:40:01.088Z,18282.1
2018-03-24T06:41:01.236Z,18358.1
2018-03-24T06:42:01.056Z,18402.7
2018-03-24T06:43:01.114Z,18595.4
2018-03-24T06:44:01.092Z,18981.4
2018-03-24T06:45:01.090Z,19436.7
2018-03-24T06:46:01.235Z,19865.8
2018-03-24T06:47:01.088Z,20327.5
2018-03-24T06:48:01.117Z,20883.5
2018-03-24T06:49:01.095Z,21547.4
2018-03-24T06:50:01.092Z,22364.7
2018-03-24T06:51:01.339Z,23327.1
2018-03-24T06:52:01.094Z,24368.5
2018-03-24T06:53:01.121Z,25439.3
2018-03-24T06:54:01.094Z,26624.0
2018-03-24T06:55:01.131Z,27959.4
2018-03-24T06:56:01.242Z,29391.3
2018-03-24T06:57:01.096Z,30903.7
2018-03-24T06:58:01.119Z,32322.5
2018-03-24T06:59:01.097Z,33658.5
2018-03-24T07:00:01.093Z,35058.2
2018-03-24T07:01:01.241Z,36562.2
2018-03-24T07:02:01.128Z,38109.8
2018-03-24T07:03:01.094Z,39621.7
2018-03-24T07:04:01.099Z,41037.4
2018-03-24T07:05:01.098Z,42322.9
2018-03-24T07:06:01.236Z,43415.4
2018-03-24T07:07:01.138Z,44342.8
2018-03-24T07:08:01.066Z,45227.5
2018-03-24T07:09:01.100Z,46113.5
2018-03-24T07:10:01.098Z,47006.1
2018-03-24T07:11:01.244Z,47899.7
2018-03-24T07:12:01.134Z,48789.7
2018-03-24T07:13:01.062Z,49673.5
2018-03-24T07:14:01.099Z,50530.5
2018-03-24T07:15:01.066Z,51350.2
2018-03-24T07:16:01.371Z,52116.3
2018-03-24T07:17:01.123Z,52823.8
2018-03-24T07:18:01.102Z,53461.0
2018-03-24T07:19:01.168Z,54012.7
2018-03-24T07:20:01.065Z,54477.2
2018-03-24T07:21:01.241Z,54850.4
2018-03-24T07:22:01.123Z,55114.9
2018-03-24T07:23:01.135Z,55269.7
2018-03-24T07:24:01.103Z,55318.5
2018-03-24T07:25:01.108Z,55255.3
2018-03-24T07:27:01.331Z,55038.1
2018-03-24T07:28:01.088Z,54756.3
2018-03-24T07:29:01.120Z,54428.7
2018-03-24T07:30:01.094Z,54069.2
2018-03-24T07:31:01.095Z,53685.8
2018-03-24T07:32:01.236Z,53290.7
2018-03-24T07:33:01.120Z,52896.3
2018-03-24T07:34:01.098Z,52518.0
2018-03-24T07:35:02.129Z,52166.6
2018-03-24T07:36:01.064Z,51862.0
2018-03-24T07:37:01.233Z,51605.3
2018-03-24T07:38:01.113Z,51406.6
2018-03-24T07:39:01.100Z,51275.5
2018-03-24T07:40:01.094Z,51227.2
2018-03-24T07:41:01.061Z,51278.7
2018-03-24T07:42:01.269Z,51486.6
2018-03-24T07:43:01.098Z,51778.8
2018-03-24T07:44:01.068Z,52150.3
2018-03-24T07:45:01.125Z,52596.4
2018-03-24T07:46:01.065Z,53115.5
2018-03-24T07:47:01.242Z,53719.7
2018-03-24T07:48:01.096Z,54420.4
2018-03-24T07:49:01.102Z,55219.1
2018-03-24T07:50:01.228Z,56113.4
2018-03-24T07:51:01.120Z,57074.8
2018-03-24T07:52:01.282Z,58018.1
2018-03-24T07:53:01.100Z,58945.5
2018-03-24T07:54:01.098Z,59845.6
2018-03-24T07:55:01.102Z,60702.5
2018-03-24T07:56:01.128Z,61509.8
2018-03-24T07:57:01.239Z,62256.9
2018-03-24T07:58:01.096Z,62937.2
2018-03-24T07:59:01.104Z,63547.7
2018-03-24T08:00:01.074Z,64088.7
2018-03-24T08:01:01.122Z,64562.0
2018-03-24T08:02:01.249Z,64955.7
2018-03-24T08:03:01.137Z,65252.3
2018-03-24T08:04:01.066Z,65444.2
2018-03-24T08:05:01.068Z,65533.3
2018-03-24T08:06:01.104Z,65535.0
2018-03-24T08:15:01.464Z,65535.0
2018-03-24T08:30:02.227Z,65535.0
2018-03-24T08:45:01.066Z,65535.0
2018-03-24T09:00:02.200Z,65535.0
2018-03-24T09:15:01.166Z,65535.0
2018-03-24T09:30:01.156Z,65535.0
2018-03-24T09:45:01.099Z,65535.0
2018-03-24T10:00:01.078Z,65535.0
2018-03-24T10:15:01.107Z,65535.0
2018-03-24T10:30:01.116Z,65535.0
2018-03-24T10:45:01.112Z,65535.0
2018-03-24T11:00:01.107Z,65535.0
2018-03-24T11:15:01.122Z,65535.0
2018-03-24T11:30:01.096Z,65535.0
2018-03-24T11:45:01.126Z,65535.0
2018-03-24T11:55:00.871Z,65535.0
2018-03-24T12:00:00.848Z,65535.0
2018-03-24T12:15:00.850Z,65535.0
2018-03-24T12:30:00.950Z,65535.0
2018-03-24T12:45:00.859Z,65535.0
2018-03-24T13:00:00.924Z,65535.0
2018-03-24T13:15:00.922Z,65535.0
2018-03-24T13:30:00.888Z,65535.0
2018-03-24T13:45:00.803Z,65535.0
2018-03-24T14:00:01.959Z,65535.0
2018-03-24T14:15:00.802Z,65535.0
2018-03-24T14:26:00.638Z,65323.0
2018-03-24T14:27:00.670Z,64745.1
2018-03-24T14:28:00.640Z,63849.2
2018-03-24T14:29:00.639Z,62728.1
2018-03-24T14:30:00.857Z,61448.1
2018-03-24T14:31:00.645Z,60050.3
2018-03-24T14:32:00.640Z,58607.5
2018-03-24T14:33:00.639Z,57221.1
2018-03-24T14:34:00.610Z,55919.9
2018-03-24T14:35:00.817Z,54688.1
2018-03-24T14:36:00.644Z,53487.7
2018-03-24T14:37:00.645Z,52287.9
2018-03-24T14:38:00.690Z,51063.7
2018-03-24T14:39:00.646Z,49789.2
2018-03-24T14:40:00.818Z,48450.2
2018-03-24T14:41:00.645Z,47267.3
2018-03-24T14:42:00.644Z,46398.0
2018-03-24T14:43:00.641Z,45814.8
2018-03-24T14:44:00.645Z,45437.7
2018-03-24T14:45:00.818Z,45241.5
2018-03-24T14:46:00.641Z,45202.7
2018-03-24T14:47:00.646Z,45227.7
2018-03-24T14:48:00.645Z,45194.5
2018-03-24T14:49:00.643Z,45088.7
2018-03-24T14:50:00.817Z,44926.3
2018-03-24T14:51:00.650Z,44716.7
2018-03-24T14:52:00.649Z,44481.5
2018-03-24T14:53:00.645Z,44243.1
2018-03-24T14:54:00.673Z,44028.0
2018-03-24T14:55:00.787Z,43870.1
2018-03-24T14:56:00.691Z,43779.9
2018-03-24T14:57:00.618Z,43737.6
2018-03-24T14:58:00.646Z,43649.9
2018-03-24T14:59:00.648Z,43481.5
2018-03-24T15:00:00.891Z,43234.7
2018-03-24T15:01:00.672Z,42918.5
2018-03-24T15:02:00.676Z,42550.7
2018-03-24T15:03:00.644Z,42143.5
2018-03-24T15:04:00.672Z,41702.7
2018-03-24T15:05:00.791Z,41268.4
2018-03-24T15:06:00.650Z,40896.1
2018-03-24T15:07:00.648Z,40637.9
2018-03-24T15:08:00.648Z,40497.4
2018-03-24T15:09:00.672Z,40440.5
2018-03-24T15:10:00.788Z,40414.9
2018-03-24T15:11:00.655Z,40386.6
2018-03-24T15:12:00.651Z,40367.1
2018-03-24T15:13:00.653Z,40421.9
2018-03-24T15:14:00.678Z,40561.7
2018-03-24T15:15:00.795Z,40746.8
2018-03-24T15:16:00.654Z,40960.5
2018-03-24T15:17:00.659Z,41204.5
2018-03-24T15:18:00.678Z,41464.2
2018-03-24T15:19:00.654Z,41688.9
2018-03-24T15:20:00.792Z,41792.8
2018-03-24T15:21:00.661Z,41689.9
2018-03-24T15:22:00.653Z,41319.9
2018-03-24T15:23:00.652Z,40730.8
2018-03-24T15:24:00.680Z,39988.2
2018-03-24T15:25:00.899Z,39123.3
2018-03-24T15:26:00.656Z,38144.7
2018-03-24T15:27:00.654Z,37048.7
2018-03-24T15:28:00.681Z,35838.4
2018-03-24T15:29:00.653Z,34527.5
2018-03-24T15:30:00.794Z,33119.2
2018-03-24T15:31:00.665Z,31599.1
2018-03-24T15:32:00.657Z,29979.8
2018-03-24T15:33:00.686Z,28300.6
2018-03-24T15:34:00.658Z,26615.1
2018-03-24T15:35:01.825Z,24991.9
2018-03-24T15:36:00.695Z,23503.3
2018-03-24T15:37:00.659Z,22182.4
2018-03-24T15:38:00.658Z,20995.6
2018-03-24T15:39:00.658Z,19910.0
2018-03-24T15:40:00.805Z,18921.9
2018-03-24T15:41:00.698Z,18031.7
2018-03-24T15:42:00.664Z,17237.7
2018-03-24T15:43:00.695Z,16535.9
2018-03-24T15:44:00.726Z,15923.3
2018-03-24T15:45:01.003Z,15395.3
2018-03-24T15:46:00.664Z,14958.6
2018-03-24T15:47:00.663Z,14608.9
2018-03-24T15:48:00.690Z,14340.6
2018-03-24T15:49:00.699Z,14143.9
2018-03-24T15:50:00.807Z,14001.3
2018-03-24T15:51:00.678Z,13902.0
2018-03-24T15:52:00.729Z,13833.1
2018-03-24T15:53:00.823Z,13779.7
2018-03-24T15:54:00.668Z,13732.0
2018-03-24T15:55:00.997Z,13687.6
2018-03-24T15:56:00.682Z,13657.5
2018-03-24T15:57:00.726Z,13659.1
2018-03-24T15:58:00.828Z,13708.3
2018-03-24T15:59:00.736Z,13807.6
2018-03-24T16:00:01.004Z,13959.1
2018-03-24T16:01:00.731Z,14163.8
2018-03-24T16:02:00.772Z,14420.7
2018-03-24T16:03:00.817Z,14724.9
2018-03-24T16:04:00.731Z,15064.3
2018-03-24T16:05:00.808Z,15440.9
2018-03-24T16:06:00.666Z,15863.2
2018-03-24T16:07:00.667Z,16338.5
2018-03-24T16:08:00.691Z,16853.9
2018-03-24T16:09:00.697Z,17392.0
2018-03-24T16:10:00.808Z,17947.6
2018-03-24T16:11:00.635Z,18514.9
2018-03-24T16:12:00.668Z,19093.3
2018-03-24T16:13:00.664Z,19678.7
2018-03-24T16:14:00.709Z,20257.9
2018-03-24T16:15:00.807Z,20803.7
2018-03-24T16:16:00.664Z,21297.7
2018-03-24T16:17:00.666Z,21740.1
2018-03-24T16:18:00.694Z,22132.3
2018-03-24T16:19:00.673Z,22462.3
2018-03-24T16:20:00.883Z,22721.1
2018-03-24T16:21:00.669Z,22907.5
2018-03-24T16:22:00.668Z,23008.3
2018-03-24T16:23:00.698Z,23029.7
2018-03-24T16:24:00.674Z,22982.3
2018-03-24T16:25:00.916Z,22874.2
2018-03-24T16:26:00.707Z,22719.3
2018-03-24T16:27:00.674Z,22514.8
2018-03-24T16:28:00.675Z,22248.8
2018-03-24T16:29:00.675Z,21939.7
2018-03-24T16:30:00.817Z,21613.1
2018-03-24T16:31:00.667Z,21276.3
2018-03-24T16:32:00.673Z,20931.9
2018-03-24T16:33:00.709Z,20581.1
2018-03-24T16:34:00.676Z,20238.9
2018-03-24T16:35:00.821Z,19919.8
2018-03-24T16:36:00.677Z,19629.9
2018-03-24T16:37:00.672Z,19357.8
2018-03-24T16:38:00.706Z,19093.6
2018-03-24T16:39:00.674Z,18853.0
2018-03-24T16:40:00.824Z,18661.2
2018-03-24T16:41:00.677Z,18527.4
2018-03-24T16:42:00.674Z,18440.4
2018-03-24T16:43:00.700Z,18405.4
2018-03-24T16:44:00.698Z,18390.1
2018-03-24T16:45:00.813Z,18352.9
2018-03-24T16:46:00.675Z,18298.2
2018-03-24T16:47:00.673Z,18243.3
2018-03-24T16:48:00.713Z,18197.7
2018-03-24T16:49:00.680Z,18155.5
2018-03-24T16:50:00.814Z,18083.0
2018-03-24T16:51:00.676Z,17950.7
2018-03-24T16:52:00.645Z,17769.5
2018-03-24T16:53:00.767Z,17553.5
2018-03-24T16:54:00.726Z,17304.9
2018-03-24T16:55:00.824Z,16994.9
2018-03-24T16:56:00.677Z,16596.9
2018-03-24T16:57:00.680Z,16125.2
2018-03-24T16:58:00.681Z,15588.1
2018-03-24T16:59:00.709Z,15024.4
2018-03-24T17:00:00.844Z,14491.3
2018-03-24T17:01:00.702Z,13988.2
2018-03-24T17:02:00.649Z,13481.9
2018-03-24T17:03:00.679Z,12956.3
2018-03-24T17:04:00.676Z,12413.7
2018-03-24T17:05:00.888Z,11870.3
2018-03-24T17:06:00.679Z,11339.2
2018-03-24T17:07:00.679Z,10827.2
2018-03-24T17:08:00.677Z,10340.1
2018-03-24T17:09:00.646Z,9877.9
2018-03-24T17:10:00.817Z,9448.6
2018-03-24T17:11:00.711Z,9054.9
2018-03-24T17:12:00.678Z,8685.4
2018-03-24T17:13:00.648Z,8339.5
2018-03-24T17:14:00.681Z,8004.3
2018-03-24T17:15:00.955Z,7658.1
2018-03-24T17:16:00.713Z,7305.7
2018-03-24T17:17:00.683Z,6959.0
2018-03-24T17:18:00.684Z,6618.2
2018-03-24T17:19:00.684Z,6283.8
2018-03-24T17:20:00.821Z,5961.7
2018-03-24T17:21:00.727Z,5655.6
2018-03-24T17:22:00.681Z,5363.2
2018-03-24T17:23:00.683Z,5079.8
2018-03-24T17:24:00.681Z,4802.5
2018-03-24T17:25:00.854Z,4531.0
2018-03-24T17:26:00.719Z,4268.0
2018-03-24T17:27:00.682Z,4017.5
2018-03-24T17:28:00.750Z,3777.1
2018-03-24T17:29:00.686Z,3546.1
2018-03-24T17:30:00.793Z,3329.5
2018-03-24T17:31:00.752Z,3126.6
2018-03-24T17:32:00.690Z,2934.4
2018-03-24T17:33:00.694Z,2751.6
2018-03-24T17:34:00.688Z,2578.1
2018-03-24T17:35:00.880Z,2412.4
2018-03-24T17:36:00.724Z,2250.9
2018-03-24T17:37:00.686Z,2091.9
2018-03-24T17:38:00.687Z,1937.7
2018-03-24T17:39:00.689Z,1792.0
2018-03-24T17:40:00.831Z,1655.5
2018-03-24T17:41:00.714Z,1527.7
2018-03-24T17:42:00.690Z,1407.5
2018-03-24T17:43:00.663Z,1294.9
2018-03-24T17:44:00.721Z,1191.8
2018-03-24T17:45:00.831Z,1099.1
2018-03-24T17:46:00.692Z,1015.3
2018-03-24T17:47:00.693Z,938.2
2018-03-24T17:48:00.700Z,866.3
2018-03-24T17:49:00.722Z,797.7
2018-03-24T17:50:00.799Z,731.5
2018-03-24T17:51:00.692Z,667.7
2018-03-24T17:52:00.691Z,607.4
2018-03-24T17:53:00.719Z,551.2
2018-03-24T17:54:00.725Z,498.7
2018-03-24T17:55:00.834Z,449.9
2018-03-24T17:56:00.665Z,405.1
2018-03-24T17:57:00.704Z,364.9
2018-03-24T17:58:00.692Z,328.4
2018-03-24T17:59:00.719Z,293.3
2018-03-24T18:00:00.863Z,258.2
2018-03-24T18:01:00.693Z,223.6
2018-03-24T18:02:00.696Z,190.5
2018-03-24T18:03:00.694Z,159.8
2018-03-24T18:04:00.726Z,132.3
2018-03-24T18:05:00.836Z,109.2
2018-03-24T18:06:00.701Z,91.1
2018-03-24T18:07:00.695Z,77.0
2018-03-24T18:08:00.706Z,65.7
2018-03-24T18:09:00.722Z,56.3
2018-03-24T18:10:00.842Z,48.1
2018-03-24T18:11:00.695Z,41.1
2018-03-24T18:12:00.729Z,34.9
2018-03-24T18:13:00.702Z,29.6
2018-03-24T18:14:00.703Z,25.0
2018-03-24T18:15:00.968Z,21.1
2018-03-24T18:16:00.700Z,17.7
2018-03-24T18:17:00.737Z,14.8
2018-03-24T18:18:00.699Z,12.4
2018-03-24T18:19:00.695Z,10.4
2018-03-24T18:20:00.846Z,8.7
2018-03-24T18:21:00.698Z,7.3
2018-03-24T18:22:00.701Z,6.2
2018-03-24T18:23:00.677Z,5.2
2018-03-24T18:24:00.726Z,4.4
2018-03-24T18:25:00.900Z,3.7
2018-03-24T18:26:00.711Z,3.2
2018-03-24T18:27:00.672Z,2.7
2018-03-24T18:28:00.702Z,2.3
2018-03-24T18:29:00.754Z,2.0
2018-03-24T18:30:00.909Z,1.7
2018-03-24T18:31:00.708Z,1.4
2018-03-24T18:32:00.710Z,1.2
2018-03-24T18:33:00.705Z,1.0
2018-03-24T18:34:00.742Z,0.9
2018-03-24T18:35:00.890Z,0.7
2018-03-24T18:36:00.677Z,0.6
2018-03-24T18:37:00.708Z,0.5
2018-03-24T18:38:00.706Z,0.4
2018-03-24T18:39:00.745Z,0.3
2018-03-24T18:41:00.861Z,0.2
2018-03-24T18:42:00.712Z,0.1
